This is the latest recevied weather packets stored in our database for station/object WY7EM. If no packets are shown the sender has not sent any weather packets the latest 1 day(s).
| Time | Temp. | Humidity | Pressure | Rain* | Wind** | Luminosity | Snow |
|---|---|---|---|---|---|---|---|
| 1777998355 | 16.11° C | 29% | 1009.9 hPa | 0 mm | 1.34 m/s, 234° | 566 W/m² | - |
| 1777998052 | 16.11° C | 31% | 1010.1 hPa | 0 mm | 2.24 m/s, 296° | 551 W/m² | - |
| 1777997749 | 15.56° C | 30% | 1010.2 hPa | 0 mm | 0.89 m/s, 17° | 536 W/m² | - |
| 1777997447 | 15.56° C | 32% | 1010.2 hPa | 0 mm | 1.34 m/s, 255° | 522 W/m² | - |
| 1777997144 | 15.56° C | 31% | 1010.3 hPa | 0 mm | 1.79 m/s, 22° | 505 W/m² | - |
| 1777996841 | 16.67° C | 31% | 1010.4 hPa | 0 mm | 2.68 m/s, 240° | 489 W/m² | - |
| 1777996539 | 16.11° C | 31% | 1010.2 hPa | 0 mm | 0.89 m/s, 38° | 477 W/m² | - |
| 1777996234 | 15° C | 32% | 1010.2 hPa | 0 mm | 2.24 m/s, 259° | 461 W/m² | - |
| 1777995930 | 15° C | 32% | 1010.2 hPa | 0 mm | 1.79 m/s, 283° | 445 W/m² | - |
| 1777995626 | 15.56° C | 32% | 1010.3 hPa | 0 mm | 0.89 m/s, 243° | 429 W/m² | - |
| 1777995324 | 15° C | 32% | 1010.4 hPa | 0 mm | 0.89 m/s, 233° | 412 W/m² | - |
| 1777995021 | 15° C | 33% | 1010.5 hPa | 0 mm | 1.79 m/s, 337° | 394 W/m² | - |
| 1777994718 | 15° C | 33% | 1010.6 hPa | 0 mm | 1.34 m/s, 234° | 376 W/m² | - |
| 1777994413 | 14.44° C | 35% | 1010.4 hPa | 0 mm | 1.79 m/s, 302° | 357 W/m² | - |
| 1777994109 | 14.44° C | 35% | 1010.4 hPa | 0 mm | 0.89 m/s, 217° | 337 W/m² | - |
| 1777993806 | 15° C | 34% | 1010.4 hPa | 0 mm | 2.68 m/s, 204° | 317 W/m² | - |
| 1777993502 | 15° C | 35% | 1010.6 hPa | 0 mm | 1.34 m/s, 312° | 298 W/m² | - |
| 1777993203 | 14.44° C | 36% | 1010.4 hPa | 0 mm | 1.79 m/s, 155° | 281 W/m² | - |
| 1777992900 | 14.44° C | 36% | 1010.8 hPa | 0 mm | 1.79 m/s, 150° | 261 W/m² | - |
| 1777992598 | 14.44° C | 36% | 1010.8 hPa | 0 mm | 1.79 m/s, 194° | 243 W/m² | - |
| 1777992296 | 13.89° C | 36% | 1010.7 hPa | 0 mm | 1.79 m/s, 164° | 225 W/m² | - |
| 1777991993 | 13.89° C | 37% | 1010.7 hPa | 0 mm | 0.89 m/s, 34° | 208 W/m² | - |
| 1777991691 | 13.33° C | 37% | 1010.7 hPa | 0 mm | 2.24 m/s, 245° | 194 W/m² | - |
| 1777991388 | 13.33° C | 37% | 1010.6 hPa | 0 mm | 2.68 m/s, 177° | 91 W/m² | - |
| 1777991085 | 13.33° C | 37% | 1010.6 hPa | 0 mm | 2.24 m/s, 184° | 62 W/m² | - |
* Rain latest hour (hover to see other rain measurements)
** Current wind speed in m/s (hover to see current wind gust speed)